CYQG

Windsor Airport

Windsor, , Canada
TAF CYQG 221742Z 2218/2318 04010G20KT P6SM -RA OVC040 TEMPO 2218/2220 4SM -RA BR BKN020 OVC040 FM222000 02012G22KT P6SM SCT020 OVC060 TEMPO 2220/2221 P6SM -RA BKN020 OVC060 FM222100 02010G20KT P6SM BKN030 BKN060 BECMG 2223/2301 02008KT FM230300 35008KT P6SM BKN020 FM230600 32003KT P6SM SCT008 BKN012 PROB30 2309/2312 1SM BR BKN006 FM231500 VRB03KT P6SM FEW020 SCT050 RMK NXT FCST BY 230000Z
Issued Valid From Valid To
Jul-22 @ 17:42 UTC
(3 hours ago)
Jul-22 @ 18:00 UTC
(2 hours ago)
Jul-23 @ 18:00 UTC
(in 22 hours)
Expired Click to View Jul-22 @ 18:00 to Jul-22 @ 20:00
TAF CYQG 221742Z 2218/2318 04010G20KT P6SM -RA OVC040
Wind Visibility Clouds Conditions
40° at 10 knots
 Gusting to 20 knots
Greater than 6 miles
  • Overcast at 4,000' AGL
  • Light Rain
Expired Click to View Jul-22 @ 18:00 to Jul-22 @ 20:00
TEMPO 2218/2220 4SM -RA BR BKN020 OVC040
Visibility Clouds Conditions
4 miles
  • Broken at 2,000' AGL
  • Overcast at 4,000' AGL
  • Light Rain
  • Mist
Temporary Jul-22 @ 20:00 to Jul-22 @ 21:00
TEMPO 2220/2221 P6SM -RA BKN020 OVC060
Visibility Clouds Conditions
Greater than 6 miles
  • Broken at 2,000' AGL
  • Overcast at 6,000' AGL
  • Light Rain
From Jul-22 @ 20:00 to Jul-22 @ 21:00
FM222000 02012G22KT P6SM SCT020 OVC060
Wind Visibility Clouds
20° at 12 knots
 Gusting to 22 knots
Greater than 6 miles
  • Scattered at 2,000' AGL
  • Overcast at 6,000' AGL
From Jul-22 @ 21:00 to Jul-22 @ 23:00
FM222100 02010G20KT P6SM BKN030 BKN060
Wind Visibility Clouds
20° at 10 knots
 Gusting to 20 knots
Greater than 6 miles
  • Broken at 3,000' AGL
  • Broken at 6,000' AGL
Becoming Jul-22 @ 23:00 to Jul-23 @ 03:00
BECMG 2223/2301 02008KT
Wind Visibility Clouds
20° at 8 knots Greater than 6 miles
  • Broken at 3,000' AGL
  • Broken at 6,000' AGL
From Jul-23 @ 03:00 to Jul-23 @ 06:00
FM230300 35008KT P6SM BKN020
Wind Visibility Clouds
350° at 8 knots Greater than 6 miles
  • Broken at 2,000' AGL
From Jul-23 @ 06:00 to Jul-23 @ 15:00
FM230600 32003KT P6SM SCT008 BKN012
Wind Visibility Clouds
320° at 3 knots Greater than 6 miles
  • Scattered at 800' AGL
  • Broken at 1,200' AGL
Probable  (Probability 30%) Jul-23 @ 09:00 to Jul-23 @ 12:00
PROB30 2309/2312 1SM BR BKN006
Visibility Clouds Conditions
1 miles
  • Broken at 600' AGL
  • Mist
From Jul-23 @ 15:00 to Jul-23 @ 18:00
FM231500 VRB03KT P6SM FEW020 SCT050 RMK NXT FCST BY 230000Z
Wind Visibility Clouds
Variable at 3 knots Greater than 6 miles
  • Few at 2,000' AGL
  • Scattered at 5,000' AGL
TAF CYQG 221742Z 2218/2318 04010G20KT P6SM -RA OVC040 TEMPO 2218/2220 4SM -RA BR BKN020 OVC040 FM222000 02012G22KT P6SM SCT020 OVC060 TEMPO 2220/2221 P6SM -RA BKN020 OVC060 FM222100 02010G20KT P6SM BKN030 BKN060 BECMG 2223/2301 02008KT FM230300 35008KT P6SM BKN020 FM230600 32003KT P6SM SCT008 BKN012 PROB30 2309/2312 1SM BR BKN006 FM231500 VRB03KT P6SM FEW020 SCT050 RMK NXT FCST BY 230000Z
Issued Jul-22 @ 17:42 UTC
(3 hours ago)
Valid From Jul-22 @ 18:00 UTC
(2 hours ago)
Valid To Jul-23 @ 18:00 UTC
(in 22 hours)
Jul-22 @ 18:00 - Jul-22 @ 20:00
Wind Visibility
40° at 10 knots
 Gusting to 20 knots
Greater than 6 miles
Clouds
  • Overcast at 4,000' AGL
Conditions
  • Light Rain
Jul-22 @ 18:00 - Jul-22 @ 20:00
Clouds
  • Broken at 2,000' AGL
  • Overcast at 4,000' AGL
Conditions
  • Light Rain
  • Mist
Temporary Jul-22 @ 20:00 - Jul-22 @ 21:00
Clouds
  • Broken at 2,000' AGL
  • Overcast at 6,000' AGL
Conditions
  • Light Rain
From Jul-22 @ 20:00 - Jul-22 @ 21:00
Wind Visibility
20° at 12 knots
 Gusting to 22 knots
Greater than 6 miles
Clouds
  • Scattered at 2,000' AGL
  • Overcast at 6,000' AGL
From Jul-22 @ 21:00 - Jul-22 @ 23:00
Wind Visibility
20° at 10 knots
 Gusting to 20 knots
Greater than 6 miles
Clouds
  • Broken at 3,000' AGL
  • Broken at 6,000' AGL
Becoming Jul-22 @ 23:00 - Jul-23 @ 03:00
Wind Visibility
20° at 8 knots Greater than 6 miles
Clouds
  • Broken at 3,000' AGL
  • Broken at 6,000' AGL
From Jul-23 @ 03:00 - Jul-23 @ 06:00
Wind Visibility
350° at 8 knots Greater than 6 miles
Clouds
  • Broken at 2,000' AGL
From Jul-23 @ 06:00 - Jul-23 @ 15:00
Wind Visibility
320° at 3 knots Greater than 6 miles
Clouds
  • Scattered at 800' AGL
  • Broken at 1,200' AGL
Probability 30% Probable Jul-23 @ 09:00 - Jul-23 @ 12:00
Clouds
  • Broken at 600' AGL
Conditions
  • Mist
From Jul-23 @ 15:00 - Jul-23 @ 18:00
Wind Visibility
Variable at 3 knots Greater than 6 miles
Clouds
  • Few at 2,000' AGL
  • Scattered at 5,000' AGL